Overview Statistics Trail Chart Weather Telemetry Raw packets
 

This is the latest recevied weather packets stored in our database for station/object 9M4GEK-3. If no packets are shown the sender has not sent any weather packets the latest 10 day(s).

<< 4 5 6 7 8 9 10 >>
Time Temp. Humidity Pressure Rain* Wind** Luminosity Snow
1788495464 44.44° C 29% 1011.6 hPa - - - -
1788494564 48.33° C 26% 1011.8 hPa - - - -
1788493858 27.78° C 71% 1009.6 hPa - - - -
1788493663 46.11° C 28% 1011.9 hPa - - - -
1788492763 47.22° C 28% 1012.1 hPa - - - -
1788491863 47.22° C 29% 1012.3 hPa - - - -
1788490963 46.11° C 30% 1012.3 hPa - - - -
1788490063 45° C 31% 1012.5 hPa - - - -
1788489163 45° C 33% 1012.6 hPa - - - -
1788488262 43.33° C 34% 1012.5 hPa - - - -
1788487549 28.33° C 70% 1010 hPa - - - -
1788487362 42.22° C 36% 1012.6 hPa - - - -
1788486542 27.78° C 70% 1009.9 hPa - - - -
1788486462 42.22° C 37% 1012.6 hPa - - - -
1788485562 40° C 39% 1012.8 hPa - - - -
1788484662 38.89° C 40% 1012.6 hPa - - - -
1788483762 38.33° C 42% 1012.4 hPa - - - -
1788482861 37.78° C 45% 1012.2 hPa - - - -
1788481963 35.56° C 50% 1012.1 hPa - - - -
1788481063 30° C 61% 1012.1 hPa - - - -
1788480426 27.78° C 70% 1010.1 hPa - - - -
1788480163 28.89° C 63% 1011.9 hPa - - - -
1788479270 28.33° C 65% 1011.5 hPa - - - -
1788478363 26.67° C 67% 1011.6 hPa - - - -
1788478229 28.33° C 69% 1010.2 hPa - - - -

* Rain since midnight (hover to see other rain measurements)
** Current wind speed in m/s (hover to see current wind gust speed)